Time;durP1;ratioP1;P1;durP2;ratioP2;P2;SDS_P1;SDS_P2;PMS_P1;PMS_P2;Temp;Humidity;BMP_temperature;BMP_pressure;BME280_temperature;BME280_humidity;BME280_pressure;Samples;Min_cycle;Max_cycle;Signal;HPM_P1;HPM_P2
2021/06/04 00:01:30;;;;;;;9.40;4.18;;;15.90;99.90;;;;;;5096846;28;20034;-64
2021/06/04 00:03:58;;;;;;;8.38;4.35;;;15.90;99.90;;;;;;5096906;28;20044;-63
2021/06/04 00:06:26;;;;;;;6.43;4.38;;;15.90;99.90;;;;;;5097290;28;20322;-64
2021/06/04 00:08:55;;;;;;;8.18;5.15;;;15.80;99.90;;;;;;5097910;28;20095;-64
2021/06/04 00:11:46;;;;;;;8.25;5.90;;;15.80;99.90;;;;;;5097349;28;20022;-63
2021/06/04 00:14:18;;;;;;;7.32;5.90;;;15.80;99.90;;;;;;5097243;28;20031;-64
2021/06/04 00:16:57;;;;;;;8.18;5.88;;;15.90;99.90;;;;;;5097341;28;20111;-63
2021/06/04 00:19:31;;;;;;;9.82;5.70;;;15.90;99.90;;;;;;5097570;28;20436;-63
2021/06/04 00:22:06;;;;;;;8.63;5.68;;;15.90;99.90;;;;;;5096351;28;20078;-63
2021/06/04 00:24:36;;;;;;;9.20;6.00;;;15.90;99.90;;;;;;5096901;28;20062;-63
2021/06/04 00:27:05;;;;;;;8.52;6.05;;;15.90;99.90;;;;;;5097379;28;20361;-64
2021/06/04 00:29:33;;;;;;;10.15;6.03;;;15.90;99.90;;;;;;5096182;28;20048;-63
2021/06/04 00:32:00;;;;;;;9.10;6.32;;;15.90;99.90;;;;;;5096233;28;20028;-64
2021/06/04 00:34:28;;;;;;;9.07;5.70;;;15.90;99.90;;;;;;5078770;28;20043;-63
2021/06/04 00:36:56;;;;;;;10.02;5.47;;;15.90;99.90;;;;;;5096363;28;20377;-63
2021/06/04 00:39:26;;;;;;;9.38;5.40;;;15.90;99.90;;;;;;5096458;28;20294;-63
2021/06/04 00:42:06;;;;;;;8.52;6.20;;;15.80;99.90;;;;;;5096900;28;20103;-63
2021/06/04 00:44:34;;;;;;;6.15;5.28;;;15.80;99.90;;;;;;5097560;28;20020;-63
2021/06/04 00:47:03;;;;;;;8.25;6.38;;;15.70;99.90;;;;;;5097229;28;20031;-63
2021/06/04 00:49:30;;;;;;;11.10;6.65;;;15.70;99.90;;;;;;5097307;28;20099;-63
2021/06/04 00:52:08;;;;;;;13.52;7.47;;;15.70;99.90;;;;;;5097211;28;20025;-63
2021/06/04 00:54:36;;;;;;;10.05;6.45;;;15.70;99.90;;;;;;5097416;28;20091;-63
2021/06/04 00:57:05;;;;;;;7.55;6.10;;;15.60;99.90;;;;;;5097186;28;20020;-63
2021/06/04 00:59:38;;;;;;;8.07;6.35;;;15.70;99.90;;;;;;5096370;28;20028;-64
2021/06/04 01:02:12;;;;;;;11.25;5.70;;;15.70;99.90;;;;;;5095815;28;20360;-64
2021/06/04 01:04:40;;;;;;;7.25;5.53;;;15.60;99.90;;;;;;5096786;28;20044;-63
2021/06/04 01:07:33;;;;;;;9.27;6.88;;;15.60;99.90;;;;;;5099866;28;20481;-63
2021/06/04 01:10:19;;;;;;;10.90;6.05;;;15.60;99.90;;;;;;5099630;28;20024;-63
2021/06/04 01:12:51;;;;;;;10.77;7.57;;;15.50;99.90;;;;;;5100258;28;20095;-63
2021/06/04 01:15:54;;;;;;;8.90;6.72;;;15.50;99.90;;;;;;5100100;28;20020;-63
2021/06/04 01:18:50;;;;;;;11.55;5.45;;;15.50;99.90;;;;;;5099446;28;20309;-64
2021/06/04 01:21:24;;;;;;;6.47;4.75;;;15.40;99.90;;;;;;5100088;28;20024;-63
2021/06/04 01:24:09;;;;;;;8.55;5.60;;;15.30;99.90;;;;;;5100799;28;20024;-63
2021/06/04 01:26:47;;;;;;;17.63;5.35;;;15.30;99.90;;;;;;5100515;28;20024;-63
2021/06/04 01:29:35;;;;;;;17.50;6.72;;;15.20;99.90;;;;;;5100177;28;20035;-63
2021/06/04 01:32:24;;;;;;;17.00;7.18;;;15.20;99.90;;;;;;5100314;28;20038;-63
2021/06/04 01:35:09;;;;;;;14.40;6.70;;;15.00;99.90;;;;;;5082171;28;20047;-63
2021/06/04 01:37:38;;;;;;;12.60;7.22;;;15.00;99.90;;;;;;5099829;28;20024;-63
2021/06/04 01:40:15;;;;;;;14.85;7.28;;;15.00;99.90;;;;;;5099054;28;20024;-63
2021/06/04 01:42:46;;;;;;;10.43;6.68;;;15.00;99.90;;;;;;5098958;28;20332;-63
2021/06/04 01:45:20;;;;;;;12.68;6.72;;;15.00;99.90;;;;;;5098956;28;20031;-63
2021/06/04 01:48:06;;;;;;;15.68;7.03;;;15.00;99.90;;;;;;5099098;28;20031;-63
2021/06/04 01:50:44;;;;;;;11.48;7.43;;;14.90;99.90;;;;;;5098957;28;20016;-63
2021/06/04 01:53:20;;;;;;;12.52;7.63;;;14.90;99.90;;;;;;5098767;28;20030;-63
2021/06/04 01:55:50;;;;;;;;;;;14.90;99.90;;;;;;5099298;28;20020;-63
2021/06/04 01:58:32;;;;;;;21.00;7.05;;;14.90;99.90;;;;;;5099230;28;19911;-63
2021/06/04 02:01:11;;;;;;;20.02;8.15;;;14.90;99.90;;;;;;5099695;28;20431;-63
2021/06/04 02:03:40;;;;;;;13.15;8.18;;;14.90;99.90;;;;;;5099369;28;20060;-63
2021/06/04 02:06:08;;;;;;;30.27;10.35;;;15.00;99.90;;;;;;5099348;28;20024;-63
2021/06/04 02:08:42;;;;;;;24.05;8.00;;;14.90;99.90;;;;;;5099231;28;20443;-63
2021/06/04 02:11:15;;;;;;;43.15;7.15;;;14.90;99.90;;;;;;5099354;28;20032;-63
2021/06/04 02:13:48;;;;;;;48.70;7.65;;;14.90;99.90;;;;;;5099935;28;20077;-63
2021/06/04 02:16:43;;;;;;;50.42;8.50;;;14.80;99.90;;;;;;5098964;28;20020;-63
2021/06/04 02:19:27;;;;;;;45.33;8.48;;;14.80;99.90;;;;;;5098606;28;20020;-63
2021/06/04 02:22:05;;;;;;;62.55;7.72;;;14.70;99.90;;;;;;5098417;28;20113;-63
2021/06/04 02:24:53;;;;;;;45.90;7.88;;;14.70;99.90;;;;;;5098146;28;20016;-63
2021/06/04 02:27:37;;;;;;;47.03;7.03;;;14.70;99.90;;;;;;5097991;28;20046;-63
2021/06/04 02:30:26;;;;;;;49.70;7.70;;;14.70;99.90;;;;;;5098071;28;20420;-63
2021/06/04 02:33:18;;;;;;;33.50;7.30;;;14.60;99.90;;;;;;5098275;28;20047;-63
2021/06/04 02:36:14;;;;;;;25.17;6.85;;;14.50;99.90;;;;;;5097983;28;20320;-63
2021/06/04 02:38:58;;;;;;;18.80;6.18;;;14.50;99.90;;;;;;5098521;28;20028;-63
2021/06/04 02:41:39;;;;;;;16.70;6.00;;;14.50;99.90;;;;;;5099368;28;20020;-63
2021/06/04 02:44:18;;;;;;;25.88;7.57;;;14.40;99.90;;;;;;5080798;28;20328;-63
2021/06/04 02:46:55;;;;;;;16.27;7.03;;;14.40;99.90;;;;;;5099258;28;20059;-63
2021/06/04 02:49:24;;;;;;;13.73;7.07;;;14.30;99.90;;;;;;5080773;28;20435;-63
2021/06/04 02:51:58;;;;;;;21.20;7.25;;;14.30;99.90;;;;;;5099037;28;20099;-63
2021/06/04 02:54:31;;;;;;;14.02;6.38;;;14.30;99.90;;;;;;5098738;28;20027;-63
2021/06/04 02:57:08;;;;;;;15.15;6.40;;;14.40;99.90;;;;;;5097766;28;20024;-63
2021/06/04 02:59:39;;;;;;;21.88;6.63;;;14.30;99.90;;;;;;5079527;28;20119;-63
2021/06/04 03:02:23;;;;;;;24.67;7.72;;;14.30;99.90;;;;;;5097934;28;20041;-63
2021/06/04 03:04:56;;;;;;;15.18;7.13;;;14.30;99.90;;;;;;5097628;28;20070;-63
2021/06/04 03:07:30;;;;;;;29.88;7.28;;;14.20;99.90;;;;;;5097400;28;20035;-63
2021/06/04 03:09:59;;;;;;;20.70;6.57;;;14.20;99.90;;;;;;5079411;28;20020;-63
2021/06/04 03:12:42;;;;;;;24.23;6.93;;;14.20;99.90;;;;;;5097274;28;20077;-63
2021/06/04 03:15:33;;;;;;;26.70;6.55;;;14.20;99.90;;;;;;5097266;28;20020;-63
2021/06/04 03:18:01;;;;;;;28.88;6.80;;;14.10;99.90;;;;;;5098552;28;20028;-63
2021/06/04 03:20:39;;;;;;;16.33;6.80;;;14.10;99.90;;;;;;5098046;28;20028;-63
2021/06/04 03:23:11;;;;;;;9.82;6.43;;;14.10;99.90;;;;;;5079969;28;20166;-63
2021/06/04 03:25:45;;;;;;;15.70;7.97;;;14.10;99.90;;;;;;5098104;28;20020;-63
2021/06/04 03:28:16;;;;;;;9.52;7.70;;;14.00;99.90;;;;;;5097090;28;20039;-63
2021/06/04 03:30:48;;;;;;;11.65;6.50;;;14.00;99.90;;;;;;5098151;28;20146;-63
2021/06/04 03:33:21;;;;;;;9.02;6.60;;;14.00;99.90;;;;;;5098605;28;20423;-63
2021/06/04 03:35:49;;;;;;;8.77;6.57;;;14.10;99.90;;;;;;5097742;28;20023;-63
2021/06/04 03:38:18;;;;;;;13.20;6.93;;;14.10;99.90;;;;;;5096748;28;20016;-63
2021/06/04 03:40:47;;;;;;;11.70;5.82;;;14.10;99.90;;;;;;5079924;28;20052;-63
2021/06/04 03:43:17;;;;;;;10.23;6.90;;;14.10;99.90;;;;;;5097094;28;20438;-63
2021/06/04 03:45:46;;;;;;;12.82;6.68;;;14.00;99.90;;;;;;5096998;28;20024;-63
2021/06/04 03:48:19;;;;;;;10.27;6.13;;;14.10;99.90;;;;;;5096514;28;20024;-63
2021/06/04 03:50:48;;;;;;;15.40;7.47;;;14.10;99.90;;;;;;5096717;28;20024;-63
2021/06/04 03:53:18;;;;;;;10.00;6.05;;;14.10;99.90;;;;;;5096971;28;20033;-63
2021/06/04 03:55:45;;;;;;;11.52;6.72;;;14.10;99.90;;;;;;5096834;28;20074;-63
2021/06/04 03:58:14;;;;;;;9.05;6.85;;;14.10;99.90;;;;;;5080499;28;20039;-63
2021/06/04 04:00:52;;;;;;;10.68;6.68;;;14.10;99.90;;;;;;5097486;28;20399;-63
2021/06/04 04:03:24;;;;;;;14.07;7.38;;;14.10;99.90;;;;;;5097314;28;20083;-63
2021/06/04 04:05:52;;;;;;;11.23;7.40;;;14.10;99.90;;;;;;5097498;28;20036;-63
2021/06/04 04:08:22;;;;;;;10.85;7.43;;;14.20;99.90;;;;;;5097771;28;20500;-63
2021/06/04 04:10:50;;;;;;;10.52;6.55;;;14.20;99.90;;;;;;5097484;28;20024;-63
2021/06/04 04:13:19;;;;;;;13.63;7.05;;;14.10;99.90;;;;;;5097145;28;20362;-63
2021/06/04 04:15:48;;;;;;;12.65;6.68;;;14.10;99.90;;;;;;5096947;28;20020;-63
2021/06/04 04:18:16;;;;;;;10.73;6.47;;;14.10;99.90;;;;;;5096224;28;20032;-63
2021/06/04 04:20:50;;;;;;;17.48;7.43;;;14.10;99.90;;;;;;5096318;28;20093;-63
2021/06/04 04:23:38;;;;;;;11.18;8.23;;;14.10;99.90;;;;;;5096351;28;20020;-63
2021/06/04 04:26:07;;;;;;;13.52;9.98;;;14.00;99.90;;;;;;5096473;28;20048;-63
2021/06/04 04:28:37;;;;;;;13.63;9.02;;;14.10;99.90;;;;;;5096124;28;20090;-63
2021/06/04 04:31:07;;;;;;;11.80;9.38;;;14.10;99.90;;;;;;5096148;28;20025;-63
2021/06/04 04:33:35;;;;;;;10.77;7.40;;;14.20;99.90;;;;;;5096863;28;20016;-63
2021/06/04 04:36:04;;;;;;;8.10;6.50;;;14.30;99.90;;;;;;5096620;28;20024;-63
2021/06/04 04:38:33;;;;;;;10.98;6.80;;;14.30;99.90;;;;;;5098344;28;20067;-64
2021/06/04 04:41:03;;;;;;;9.68;7.45;;;14.40;99.90;;;;;;5101120;28;20115;-64
2021/06/04 04:43:36;;;;;;;10.90;6.80;;;14.50;99.90;;;;;;5101279;28;20024;-64
2021/06/04 04:46:05;;;;;;;7.35;5.82;;;14.60;99.90;;;;;;5101008;28;20497;-63
2021/06/04 04:48:34;;;;;;;12.00;6.22;;;14.70;99.90;;;;;;5101342;28;20035;-63
2021/06/04 04:51:03;;;;;;;10.07;6.28;;;14.70;99.90;;;;;;5100977;28;20024;-63
2021/06/04 04:53:31;;;;;;;14.82;6.57;;;14.70;99.90;;;;;;5101506;28;20020;-63
2021/06/04 04:56:00;;;;;;;8.60;6.22;;;14.80;99.90;;;;;;5100055;28;20043;-63
2021/06/04 04:58:28;;;;;;;9.27;6.72;;;14.90;99.90;;;;;;5100298;28;20020;-63
2021/06/04 05:00:56;;;;;;;8.15;6.80;;;15.00;99.90;;;;;;5099943;28;20020;-63
2021/06/04 05:03:25;;;;;;;8.57;6.22;;;15.10;99.90;;;;;;5099626;28;20075;-63
2021/06/04 05:05:53;;;;;;;11.18;6.78;;;15.10;99.90;;;;;;5099937;28;20077;-63
2021/06/04 05:08:21;;;;;;;9.77;5.93;;;15.10;99.90;;;;;;5081627;28;20035;-63
2021/06/04 05:10:48;;;;;;;11.32;6.22;;;15.20;99.90;;;;;;5081778;28;20020;-63
2021/06/04 05:13:18;;;;;;;11.95;6.82;;;15.20;99.90;;;;;;5099843;28;20101;-63
2021/06/04 05:15:46;;;;;;;7.97;7.15;;;15.30;99.90;;;;;;5099876;28;20024;-61
2021/06/04 05:18:14;;;;;;;13.38;8.45;;;15.30;99.90;;;;;;5100731;28;20039;-62
2021/06/04 05:20:44;;;;;;;16.15;7.80;;;15.40;99.90;;;;;;5100241;28;20028;-64
2021/06/04 05:23:13;;;;;;;9.75;7.68;;;15.50;99.90;;;;;;5100261;28;20020;-63
2021/06/04 05:25:44;;;;;;;10.85;7.72;;;15.60;99.90;;;;;;5100261;28;20045;-62
2021/06/04 05:28:17;;;;;;;9.75;8.00;;;15.70;99.90;;;;;;5099942;28;20028;-65
2021/06/04 05:30:47;;;;;;;10.80;7.68;;;15.80;99.90;;;;;;5100136;28;20320;-65
2021/06/04 05:33:18;;;;;;;11.57;8.00;;;15.80;99.90;;;;;;5099367;28;20016;-65
2021/06/04 05:35:46;;;;;;;18.40;7.80;;;15.90;99.90;;;;;;5099201;28;20020;-65
2021/06/04 05:38:14;;;;;;;11.13;7.80;;;16.10;99.90;;;;;;5099019;28;20099;-64
2021/06/04 05:40:49;;;;;;;9.93;8.25;;;16.10;99.90;;;;;;5099076;28;20020;-63
2021/06/04 05:43:21;;;;;;;11.25;7.68;;;16.20;99.90;;;;;;5099009;28;20028;-63
2021/06/04 05:45:49;;;;;;;10.35;8.55;;;16.30;99.90;;;;;;5099052;28;20035;-66
2021/06/04 05:48:18;;;;;;;10.90;7.78;;;16.40;99.90;;;;;;5098822;28;20059;-65
2021/06/04 05:50:49;;;;;;;10.13;7.75;;;16.50;99.90;;;;;;5098125;28;20020;-65
2021/06/04 05:53:23;;;;;;;9.43;7.10;;;16.70;99.90;;;;;;5098656;28;20024;-66
2021/06/04 05:55:50;;;;;;;12.55;7.05;;;16.80;99.90;;;;;;5099837;28;20020;-62
2021/06/04 05:58:20;;;;;;;7.18;6.03;;;16.90;99.90;;;;;;5099504;28;20024;-64
2021/06/04 06:00:54;;;;;;;6.55;5.63;;;17.00;99.90;;;;;;5081568;28;20024;-61
2021/06/04 06:03:25;;;;;;;7.45;5.72;;;17.10;99.90;;;;;;5099441;28;20044;-61
2021/06/04 06:05:53;;;;;;;13.20;6.05;;;17.20;99.90;;;;;;5099560;28;20028;-64
2021/06/04 06:08:22;;;;;;;8.32;5.55;;;17.40;99.90;;;;;;5099836;28;20048;-66
2021/06/04 06:10:50;;;;;;;9.70;6.70;;;17.50;99.90;;;;;;5081539;28;20451;-63
2021/06/04 06:13:18;;;;;;;7.43;6.00;;;17.60;99.90;;;;;;5098387;28;20381;-62
2021/06/04 06:15:47;;;;;;;10.55;5.65;;;17.70;99.90;;;;;;5098297;28;20024;-65
2021/06/04 06:18:15;;;;;;;9.02;5.88;;;17.80;99.90;;;;;;5098325;28;20028;-65
2021/06/04 06:20:44;;;;;;;7.10;5.47;;;17.90;99.90;;;;;;5098267;28;20351;-65
2021/06/04 06:25:55;;;;;;;9.27;5.70;;;18.00;99.90;;;;;;5122675;22;20056;-65
2021/06/04 06:28:27;;;;;;;7.78;5.50;;;18.10;99.90;;;;;;5098510;28;20039;-65
2021/06/04 06:30:55;;;;;;;10.73;5.60;;;18.20;99.90;;;;;;5098846;28;20046;-65
2021/06/04 06:33:23;;;;;;;7.53;5.85;;;18.30;99.90;;;;;;5098323;28;20020;-65
2021/06/04 06:35:58;;;;;;;6.72;5.47;;;18.30;99.90;;;;;;5080422;28;20027;-65
2021/06/04 06:38:28;;;;;;;9.90;5.63;;;18.40;99.90;;;;;;5098069;28;20078;-65
2021/06/04 06:40:58;;;;;;;6.95;5.75;;;18.50;99.90;;;;;;5098089;28;20024;-65
2021/06/04 06:43:31;;;;;;;6.20;4.93;;;18.60;99.90;;;;;;5098253;28;20080;-65
2021/06/04 06:45:59;;;;;;;7.05;5.20;;;18.60;99.90;;;;;;5098972;28;20327;-65
2021/06/04 06:48:27;;;;;;;11.25;4.65;;;18.70;99.90;;;;;;5098852;28;20028;-65
2021/06/04 06:50:55;;;;;;;6.30;3.70;;;18.80;99.90;;;;;;5099419;28;20012;-65
2021/06/04 06:53:24;;;;;;;9.88;4.35;;;19.00;99.90;;;;;;5098748;28;20020;-65
2021/06/04 06:55:56;;;;;;;8.27;5.32;;;19.10;99.90;;;;;;5099049;28;20019;-65
2021/06/04 06:58:25;;;;;;;7.70;4.50;;;19.20;99.90;;;;;;5099479;28;20358;-65
2021/06/04 07:00:54;;;;;;;5.63;5.05;;;19.30;99.90;;;;;;5080629;28;20043;-65
2021/06/04 07:03:29;;;;;;;4.75;3.85;;;19.40;99.90;;;;;;5098300;28;20525;-65
2021/06/04 07:06:01;;;;;;;6.60;4.30;;;19.50;99.90;;;;;;5097459;28;20032;-65
2021/06/04 07:08:29;;;;;;;6.55;4.22;;;19.60;99.90;;;;;;5097548;28;20020;-65
2021/06/04 07:10:58;;;;;;;7.13;4.07;;;19.70;99.90;;;;;;5097549;28;20016;-65
2021/06/04 07:13:27;;;;;;;6.50;3.35;;;19.90;99.90;;;;;;5079496;28;20052;-65
2021/06/04 07:16:03;;;;;;;4.50;3.60;;;19.90;99.90;;;;;;5097392;28;20039;-65
2021/06/04 07:18:31;;;;;;;6.95;4.38;;;20.00;99.90;;;;;;5097448;28;20024;-65
2021/06/04 07:20:59;;;;;;;4.78;3.85;;;20.10;99.90;;;;;;5097629;28;20038;-65
2021/06/04 07:23:28;;;;;;;6.20;4.07;;;20.30;99.90;;;;;;5098002;28;20035;-65
2021/06/04 07:25:57;;;;;;;8.52;4.47;;;20.40;99.90;;;;;;5058403;28;20048;-65
2021/06/04 07:28:28;;;;;;;6.05;4.22;;;20.50;99.90;;;;;;5057845;28;20024;-65
2021/06/04 07:30:58;;;;;;;6.30;4.30;;;20.60;99.90;;;;;;5056815;28;20064;-65
2021/06/04 07:33:32;;;;;;;4.95;4.05;;;20.60;99.90;;;;;;5057862;28;20325;-65
2021/06/04 07:36:04;;;;;;;7.72;4.22;;;20.70;99.90;;;;;;5057812;28;20021;-65
2021/06/04 07:38:32;;;;;;;5.82;4.30;;;20.70;99.90;;;;;;5056602;28;20025;-65
2021/06/04 07:41:00;;;;;;;7.10;4.57;;;20.80;99.90;;;;;;5056473;28;20029;-65
2021/06/04 07:43:32;;;;;;;5.45;4.30;;;20.80;99.90;;;;;;5056753;28;20025;-65
2021/06/04 07:45:59;;;;;;;4.80;3.97;;;20.80;99.90;;;;;;5055766;28;20016;-65
2021/06/04 07:48:27;;;;;;;8.55;4.53;;;20.90;99.90;;;;;;5055567;28;20083;-65
2021/06/04 07:50:56;;;;;;;5.50;4.85;;;21.00;99.90;;;;;;5057412;28;20025;-65
2021/06/04 07:53:28;;;;;;;6.72;4.28;;;21.00;99.90;;;;;;5056506;28;20360;-65
2021/06/04 07:55:57;;;;;;;10.15;4.72;;;21.10;99.90;;;;;;5057127;28;20044;-65
2021/06/04 07:58:26;;;;;;;6.25;4.53;;;21.10;99.90;;;;;;5057104;28;20025;-65
2021/06/04 08:00:54;;;;;;;7.63;4.55;;;21.20;99.90;;;;;;5056860;28;20029;-66
2021/06/04 08:03:24;;;;;;;6.97;5.40;;;21.30;99.90;;;;;;5057401;28;20028;-65
2021/06/04 08:05:53;;;;;;;7.90;5.10;;;21.40;99.90;;;;;;5057784;28;20416;-64
2021/06/04 08:08:24;;;;;;;8.23;4.72;;;21.50;99.90;;;;;;5057069;28;20056;-64
2021/06/04 08:10:53;;;;;;;7.18;5.18;;;21.60;99.90;;;;;;5057564;28;20100;-64
2021/06/04 08:13:22;;;;;;;7.78;4.85;;;21.70;99.90;;;;;;5058728;28;20036;-67
2021/06/04 08:16:01;;;;;;;6.60;5.22;;;21.80;99.90;;;;;;5063850;28;20024;-64
2021/06/04 08:18:32;;;;;;;6.90;5.05;;;21.90;99.90;;;;;;5063755;28;20090;-64
2021/06/04 08:21:03;;;;;;;6.57;4.80;;;22.00;99.90;;;;;;5063457;28;20025;-64
2021/06/04 08:23:35;;;;;;;7.68;4.95;;;22.20;99.90;;;;;;5063497;28;20421;-65
2021/06/04 08:26:09;;;;;;;7.35;5.28;;;22.30;99.90;;;;;;5103281;28;20420;-64
2021/06/04 08:28:38;;;;;;;7.50;5.53;;;22.50;99.90;;;;;;5103092;28;20020;-64
2021/06/04 08:31:07;;;;;;;9.68;6.10;;;22.70;99.90;;;;;;5103114;28;20063;-64
2021/06/04 08:33:41;;;;;;;6.43;5.22;;;22.90;99.90;;;;;;5103153;28;20327;-64
2021/06/04 08:36:15;;;;;;;6.60;5.32;;;23.10;99.90;;;;;;5103712;28;20024;-64
2021/06/04 08:38:43;;;;;;;6.82;5.28;;;23.20;99.90;;;;;;5103129;28;20016;-64
2021/06/04 08:41:27;;;;;;;8.48;5.45;;;23.30;99.90;;;;;;5103736;28;20096;-64
2021/06/04 08:44:31;;;;;;;7.32;5.40;;;23.40;99.90;;;;;;5104827;28;20285;-64
2021/06/04 08:47:14;;;;;;;7.32;5.03;;;23.60;99.90;;;;;;5104139;28;20317;-65
2021/06/04 08:50:10;;;;;;;7.40;5.07;;;23.80;99.90;;;;;;5104768;28;20351;-66
2021/06/04 08:52:43;;;;;;;8.57;5.40;;;24.00;99.90;;;;;;5086357;28;20405;-66
2021/06/04 08:55:32;;;;;;;5.82;4.90;;;24.20;99.90;;;;;;5103900;28;20020;-66
2021/06/04 08:58:18;;;;;;;7.78;5.15;;;24.20;99.90;;;;;;5104160;28;20093;-66
2021/06/04 09:00:55;;;;;;;8.55;5.53;;;24.30;99.90;;;;;;5103222;28;20038;-66
2021/06/04 09:03:23;;;;;;;7.85;5.97;;;24.50;99.90;;;;;;5103431;28;20070;-66
2021/06/04 09:06:03;;;;;;;10.63;6.68;;;24.50;99.90;;;;;;5103497;28;20412;-64
2021/06/04 09:08:36;;;;;;;7.88;6.10;;;24.60;99.90;;;;;;5103235;28;20024;-66
2021/06/04 09:11:14;;;;;;;9.13;6.45;;;24.70;99.90;;;;;;5102803;28;20095;-67
2021/06/04 09:13:41;;;;;;;10.38;6.38;;;24.80;99.90;;;;;;5103332;28;20077;-67
2021/06/04 09:16:45;;;;;;;8.27;6.40;;;24.80;99.90;;;;;;5103174;28;20095;-67
2021/06/04 09:19:35;;;;;;;8.63;5.82;;;24.80;99.90;;;;;;5103165;28;20123;-67
2021/06/04 09:22:08;;;;;;;6.20;5.20;;;25.00;99.90;;;;;;5103556;28;20027;-67
2021/06/04 09:24:47;;;;;;;10.25;5.82;;;25.20;99.90;;;;;;5102747;28;20048;-67
2021/06/04 09:27:28;;;;;;;10.40;6.70;;;25.40;99.90;;;;;;5100442;28;20408;-67
2021/06/04 09:30:25;;;;;;;8.80;6.22;;;25.60;99.90;;;;;;5082364;28;20115;-67
2021/06/04 09:33:13;;;;;;;10.35;6.90;;;25.70;99.90;;;;;;5100246;28;20099;-67
2021/06/04 09:35:58;;;;;;;10.00;6.85;;;25.60;99.90;;;;;;5100511;28;20024;-67
2021/06/04 09:38:33;;;;;;;9.25;7.45;;;25.60;99.90;;;;;;5099204;28;20035;-67
2021/06/04 09:41:26;;;;;;;12.80;8.02;;;25.60;99.90;;;;;;5099686;28;20080;-67
2021/06/04 09:44:11;;;;;;;11.80;7.10;;;25.60;99.90;;;;;;5099758;28;20020;-67
2021/06/04 09:47:05;;;;;;;14.00;8.25;;;25.40;99.90;;;;;;5099012;28;20051;-66
2021/06/04 09:49:46;;;;;;;9.80;6.63;;;25.30;99.90;;;;;;5099278;28;20065;-67
2021/06/04 09:52:29;;;;;;;9.32;6.40;;;25.30;99.90;;;;;;5099408;28;20024;-67
2021/06/04 09:55:24;;;;;;;9.52;6.85;;;25.20;99.90;;;;;;5099458;28;20030;-67
2021/06/04 09:58:07;;;;;;;8.40;6.35;;;25.30;99.90;;;;;;5099443;28;20023;-67
2021/06/04 10:00:42;;;;;;;8.13;6.22;;;25.50;99.90;;;;;;5099795;28;20024;-68
2021/06/04 10:03:27;;;;;;;11.67;7.53;;;25.60;99.90;;;;;;5100245;28;20110;-68
2021/06/04 10:06:08;;;;;;;7.25;5.90;;;25.80;99.90;;;;;;5100734;28;20320;-68
2021/06/04 10:08:56;;;;;;;10.38;6.30;;;26.00;99.90;;;;;;5099603;28;20103;-67
2021/06/04 10:11:26;;;;;;;7.53;5.57;;;26.10;99.90;;;;;;5081650;28;20020;-67
2021/06/04 10:14:24;;;;;;;8.55;6.22;;;26.30;99.90;;;;;;5100062;28;20020;-67
2021/06/04 10:19:50;;;;;;;7.88;5.60;;;26.50;99.50;;;;;;5076433;28;20127;-67
2021/06/04 10:22:23;;;;;;;7.57;5.50;;;26.40;99.90;;;;;;5098326;28;20020;-67
2021/06/04 10:25:13;;;;;;;6.93;4.97;;;26.40;99.90;;;;;;5098453;28;20044;-67
2021/06/04 10:27:47;;;;;;;8.73;5.65;;;26.30;99.90;;;;;;5098062;28;20024;-69
2021/06/04 10:30:31;;;;;;;7.00;4.72;;;26.40;99.90;;;;;;5098718;28;20070;-67
2021/06/04 10:33:10;;;;;;;7.40;5.45;;;26.60;99.90;;;;;;5098653;28;20300;-67
2021/06/04 10:36:04;;;;;;;11.77;7.85;;;26.70;98.70;;;;;;5099357;28;20016;-68
2021/06/04 10:38:46;;;;;;;60.83;36.33;;;26.70;98.70;;;;;;5098937;28;20059;-67
2021/06/04 10:41:21;;;;;;;12.02;8.85;;;26.50;99.20;;;;;;5098739;28;20120;-68
2021/06/04 10:44:18;;;;;;;7.53;6.30;;;26.40;99.90;;;;;;5098961;28;20070;-67
2021/06/04 10:47:07;;;;;;;14.98;10.25;;;26.40;99.90;;;;;;5099034;28;20027;-67
2021/06/04 10:49:48;;;;;;;11.73;6.15;;;26.40;99.90;;;;;;5099390;28;20081;-68
2021/06/04 10:52:31;;;;;;;7.63;4.90;;;26.50;99.90;;;;;;5098658;28;20016;-67
2021/06/04 10:55:28;;;;;;;9.95;5.80;;;26.60;99.90;;;;;;5098371;28;20016;-67
2021/06/04 10:58:14;;;;;;;7.55;6.03;;;26.80;99.90;;;;;;5079723;28;20059;-67
2021/06/04 11:00:58;;;;;;;9.13;6.53;;;27.00;99.00;;;;;;5098413;28;20024;-68
2021/06/04 11:03:55;;;;;;;10.20;6.95;;;27.20;97.50;;;;;;5079530;28;20332;-68
2021/06/04 11:06:44;;;;;;;8.57;6.45;;;27.30;97.60;;;;;;5097342;28;20417;-66
2021/06/04 11:09:45;;;;;;;8.00;5.43;;;27.20;97.60;;;;;;5097770;28;20326;-67
2021/06/04 11:12:58;;;;;;;11.38;7.15;;;27.10;99.10;;;;;;5098307;28;20024;-67
2021/06/04 11:15:50;;;;;;;10.52;6.50;;;26.90;99.20;;;;;;5098944;28;20296;-68
2021/06/04 11:18:32;;;;;;;8.32;5.90;;;26.90;99.90;;;;;;5098314;28;20012;-67
2021/06/04 11:21:02;;;;;;;7.78;5.30;;;26.90;99.60;;;;;;5080178;28;20020;-68
2021/06/04 11:24:00;;;;;;;6.60;5.43;;;26.80;99.70;;;;;;5098649;28;20031;-68
2021/06/04 11:26:40;;;;;;;13.55;5.82;;;26.70;99.90;;;;;;5057022;28;20067;-68
2021/06/04 11:29:18;;;;;;;8.02;5.63;;;26.60;99.90;;;;;;5056972;28;20036;-68
2021/06/04 11:32:12;;;;;;;8.18;5.63;;;26.50;99.40;;;;;;5057233;28;20021;-68
2021/06/04 11:35:09;;;;;;;9.50;5.97;;;26.40;99.20;;;;;;5055870;28;20088;-68
2021/06/04 11:37:56;;;;;;;7.70;5.85;;;26.30;99.50;;;;;;5056523;28;20025;-68
2021/06/04 11:40:32;;;;;;;;;;;26.40;99.90;;;;;;5057784;28;20021;-67
2021/06/04 11:43:14;;;;;;;7.93;6.60;;;26.50;99.90;;;;;;5055516;28;19905;-67
2021/06/04 11:45:45;;;;;;;9.30;6.63;;;26.60;99.10;;;;;;5057297;28;20096;-67
2021/06/04 11:48:26;;;;;;;9.98;7.07;;;26.80;98.90;;;;;;5057195;28;20421;-68
2021/06/04 11:51:19;;;;;;;10.38;6.72;;;26.80;98.00;;;;;;5057939;28;20017;-67
2021/06/04 11:53:55;;;;;;;9.23;6.15;;;26.80;98.10;;;;;;5046981;28;20033;-67
2021/06/04 11:56:39;;;;;;;;;;;26.90;99.00;;;;;;5057843;28;20090;-67
2021/06/04 11:59:12;;;;;;;10.10;6.40;;;27.10;99.50;;;;;;5057841;28;19905;-67
2021/06/04 12:02:02;;;;;;;9.00;6.50;;;27.40;97.00;;;;;;5057248;28;20044;-67
2021/06/04 12:04:30;;;;;;;7.97;5.25;;;27.60;97.00;;;;;;5057454;28;20079;-67
2021/06/04 12:07:02;;;;;;;8.32;5.80;;;27.70;96.80;;;;;;5056125;28;20021;-67
2021/06/04 12:09:33;;;;;;;6.95;5.20;;;27.70;96.20;;;;;;5056815;28;20021;-68
2021/06/04 12:12:25;;;;;;;8.20;5.55;;;27.70;97.00;;;;;;5056787;28;20017;-67
2021/06/04 12:14:57;;;;;;;8.70;6.05;;;27.60;96.00;;;;;;5057208;28;20017;-67
2021/06/04 12:17:34;;;;;;;6.88;5.75;;;27.50;96.40;;;;;;5057237;28;20024;-67
2021/06/04 12:20:29;;;;;;;8.88;6.43;;;27.40;96.40;;;;;;5056385;28;20025;-67
2021/06/04 12:23:08;;;;;;;5.93;5.32;;;27.30;96.60;;;;;;5056244;28;20028;-67
2021/06/04 12:25:52;;;;;;;8.82;5.55;;;27.20;96.80;;;;;;5090397;28;20052;-67
2021/06/04 12:28:19;;;;;;;7.95;5.15;;;27.10;97.00;;;;;;5096748;28;20027;-68
2021/06/04 12:30:58;;;;;;;7.63;5.35;;;27.10;97.80;;;;;;5096825;28;20040;-68
2021/06/04 12:33:35;;;;;;;8.35;5.95;;;27.10;97.40;;;;;;5096427;28;20020;-68
2021/06/04 12:36:05;;;;;;;6.93;5.07;;;27.00;96.50;;;;;;5096685;28;20023;-68
2021/06/04 12:38:36;;;;;;;8.73;5.95;;;26.90;96.90;;;;;;5096674;28;20103;-68
2021/06/04 12:41:22;;;;;;;6.07;5.20;;;26.80;96.80;;;;;;5097625;28;20032;-67
2021/06/04 12:43:54;;;;;;;9.40;5.20;;;26.70;96.50;;;;;;5079943;28;20024;-67
2021/06/04 12:46:23;;;;;;;8.25;5.15;;;26.50;95.80;;;;;;5097547;28;20038;-68
2021/06/04 12:49:08;;;;;;;8.02;4.78;;;26.50;95.80;;;;;;5096991;28;20028;-68
2021/06/04 12:51:48;;;;;;;6.35;4.60;;;26.40;96.40;;;;;;5097050;28;20020;-68
2021/06/04 12:54:26;;;;;;;6.43;4.78;;;26.20;97.10;;;;;;5096816;28;20025;-69
2021/06/04 12:56:58;;;;;;;8.52;5.00;;;26.20;97.00;;;;;;5096537;28;20354;-70
2021/06/04 12:59:31;;;;;;;6.55;4.82;;;26.10;95.80;;;;;;5096539;28;20028;-68
2021/06/04 13:02:12;;;;;;;8.18;4.75;;;26.10;96.10;;;;;;5100107;28;20149;-69
2021/06/04 13:04:43;;;;;;;6.60;4.40;;;26.10;96.60;;;;;;5099759;28;20052;-68
2021/06/04 13:07:32;;;;;;;6.93;4.63;;;26.20;96.10;;;;;;5100091;28;20048;-68
2021/06/04 13:10:15;;;;;;;6.78;3.90;;;26.30;96.30;;;;;;5099663;28;20027;-67
2021/06/04 13:12:44;;;;;;;8.13;4.50;;;26.40;95.90;;;;;;5100154;28;20073;-67
2021/06/04 13:15:19;;;;;;;7.72;4.13;;;26.50;95.20;;;;;;5101490;28;20016;-67
2021/06/04 13:18:02;;;;;;;5.35;3.97;;;26.60;94.80;;;;;;5100818;28;20032;-67
2021/06/04 13:20:39;;;;;;;6.18;3.75;;;26.70;94.60;;;;;;5082431;28;20119;-67
2021/06/04 13:23:11;;;;;;;6.50;4.28;;;26.70;94.10;;;;;;5100732;28;20028;-67
2021/06/04 13:25:40;;;;;;;6.13;3.72;;;26.70;94.30;;;;;;5100212;28;20097;-69
2021/06/04 13:28:19;;;;;;;8.70;4.28;;;26.80;93.20;;;;;;5100186;28;20024;-68
2021/06/04 13:30:57;;;;;;;8.52;3.83;;;26.90;93.50;;;;;;5100111;28;20029;-68
2021/06/04 13:33:35;;;;;;;7.32;3.70;;;27.10;93.30;;;;;;5099107;28;20099;-68